createdAt,value
2019-05-18T00:00:15.476Z,87.50
2019-05-18T00:01:21.213Z,87.40
2019-05-18T00:02:27.227Z,87.50
2019-05-18T00:03:31.581Z,87.60
2019-05-18T00:04:36.179Z,87.50
2019-05-18T00:05:40.431Z,87.60
2019-05-18T00:06:45.050Z,87.60
2019-05-18T00:07:50.941Z,87.60
2019-05-18T00:08:58.196Z,87.70
2019-05-18T00:10:02.570Z,87.90
2019-05-18T00:11:07.289Z,87.90
2019-05-18T00:12:11.690Z,87.90
2019-05-18T00:13:16.225Z,87.90
2019-05-18T00:14:20.527Z,87.90
2019-05-18T00:15:25.094Z,88.00
2019-05-18T00:16:29.468Z,88.00
2019-05-18T00:17:34.017Z,88.00
2019-05-18T00:18:42.294Z,88.10
2019-05-18T00:19:47.312Z,88.10
2019-05-18T00:20:51.692Z,88.00
2019-05-18T00:21:56.107Z,88.10
2019-05-18T00:23:00.539Z,88.70
2019-05-18T00:24:05.030Z,88.00
2019-05-18T00:25:09.458Z,88.40
2019-05-18T00:26:14.199Z,87.90
2019-05-18T00:27:18.493Z,87.90
2019-05-18T00:28:25.386Z,87.80
2019-05-18T00:29:29.762Z,87.80
2019-05-18T00:30:34.392Z,87.80
2019-05-18T00:31:38.660Z,87.70
2019-05-18T00:32:43.179Z,87.80
2019-05-18T00:33:47.538Z,87.80
2019-05-18T00:34:52.073Z,87.70
2019-05-18T00:35:56.460Z,87.60
2019-05-18T00:37:05.300Z,87.50
2019-05-18T00:38:09.578Z,87.40
2019-05-18T00:39:14.204Z,87.40
2019-05-18T00:40:18.710Z,87.30
2019-05-18T00:41:27.569Z,88.10
2019-05-18T00:42:34.867Z,87.20
2019-05-18T00:43:39.262Z,87.30
2019-05-18T00:44:45.185Z,87.30
2019-05-18T00:45:49.761Z,87.30
2019-05-18T00:46:54.089Z,87.40
2019-05-18T00:47:58.724Z,87.40
2019-05-18T00:49:03.267Z,87.30
2019-05-18T00:50:08.055Z,87.30
2019-05-18T00:51:12.407Z,87.30
2019-05-18T00:52:16.949Z,87.40
2019-05-18T00:53:21.286Z,87.50
2019-05-18T00:54:25.843Z,87.50
2019-05-18T00:55:30.153Z,87.40
2019-05-18T00:56:34.794Z,87.40
2019-05-18T00:57:39.152Z,88.10
2019-05-18T00:58:43.615Z,87.70
2019-05-18T00:59:48.040Z,87.70
2019-05-18T01:00:52.512Z,87.80
2019-05-18T01:01:56.783Z,87.90
2019-05-18T01:03:04.221Z,87.90
2019-05-18T01:04:08.556Z,87.90
2019-05-18T01:05:13.672Z,88.00
2019-05-18T01:06:17.992Z,87.90
2019-05-18T01:07:22.518Z,87.90
2019-05-18T01:08:26.900Z,87.90
2019-05-18T01:09:31.417Z,88.10
2019-05-18T01:10:35.805Z,88.00
2019-05-18T01:11:40.294Z,88.10
2019-05-18T01:12:44.709Z,88.00
2019-05-18T01:13:49.162Z,88.10
2019-05-18T01:14:53.456Z,88.90
2019-05-18T01:15:57.961Z,88.10
2019-05-18T01:17:02.300Z,88.20
2019-05-18T01:18:06.936Z,88.40
2019-05-18T01:19:11.337Z,88.40
2019-05-18T01:20:15.920Z,88.30
2019-05-18T01:21:20.178Z,88.30
2019-05-18T01:22:24.722Z,88.40
2019-05-18T01:23:28.994Z,88.20
2019-05-18T01:24:33.560Z,88.30
2019-05-18T01:25:37.914Z,88.30
2019-05-18T01:26:44.564Z,88.30
2019-05-18T01:27:48.910Z,88.30
2019-05-18T01:28:56.496Z,88.40
2019-05-18T01:30:00.933Z,88.40
2019-05-18T01:31:05.496Z,88.40
2019-05-18T01:32:09.767Z,88.50
2019-05-18T01:33:14.342Z,88.60
2019-05-18T01:34:18.760Z,88.60
2019-05-18T01:35:23.378Z,88.60
2019-05-18T01:36:27.646Z,88.70
2019-05-18T01:37:32.188Z,89.40
2019-05-18T01:38:37.988Z,88.70
2019-05-18T01:39:42.426Z,88.70
2019-05-18T01:40:46.808Z,88.60
2019-05-18T01:41:51.266Z,88.60
2019-05-18T01:42:55.552Z,88.80
2019-05-18T01:44:00.042Z,88.80
2019-05-18T01:45:16.206Z,88.80
2019-05-18T01:46:13.206Z,88.90
2019-05-18T01:47:17.512Z,88.90
2019-05-18T01:48:21.987Z,88.90
2019-05-18T01:49:26.269Z,88.90
2019-05-18T01:50:30.726Z,89.00
2019-05-18T01:51:35.197Z,89.00
2019-05-18T01:52:39.778Z,89.00
2019-05-18T01:53:44.088Z,89.10
2019-05-18T01:55:05.517Z,89.20
2019-05-18T01:56:06.557Z,89.20
2019-05-18T01:57:10.944Z,89.30
2019-05-18T01:58:15.246Z,89.30
2019-05-18T01:59:19.791Z,89.30
2019-05-18T02:00:24.211Z,89.40
2019-05-18T02:01:28.656Z,89.50
2019-05-18T02:02:32.932Z,89.50
2019-05-18T02:03:37.383Z,89.50
2019-05-18T02:04:41.697Z,89.60
2019-05-18T02:05:47.474Z,89.60
2019-05-18T02:06:51.722Z,89.60
2019-05-18T02:07:56.292Z,90.10
2019-05-18T02:09:02.915Z,89.60
2019-05-18T02:10:08.498Z,89.60
2019-05-18T02:11:12.899Z,89.70
2019-05-18T02:12:17.338Z,89.70
2019-05-18T02:13:21.710Z,89.90
2019-05-18T02:14:26.308Z,89.70
2019-05-18T02:15:30.649Z,89.70
2019-05-18T02:16:35.217Z,89.70
2019-05-18T02:17:39.547Z,89.70
2019-05-18T02:18:44.067Z,89.60
2019-05-18T02:19:48.469Z,89.60
2019-05-18T02:20:52.912Z,89.60
2019-05-18T02:21:58.712Z,89.50
2019-05-18T02:23:05.474Z,89.50
2019-05-18T02:24:09.759Z,89.50
2019-05-18T02:25:14.283Z,89.40
2019-05-18T02:26:20.822Z,89.40
2019-05-18T02:27:25.462Z,89.50
2019-05-18T02:28:30.005Z,89.40
2019-05-18T02:29:35.957Z,89.50
2019-05-18T02:30:40.325Z,89.40
2019-05-18T02:31:44.954Z,89.50
2019-05-18T02:32:49.357Z,89.40
2019-05-18T02:33:54.030Z,89.40
2019-05-18T02:34:58.410Z,89.30
2019-05-18T02:36:02.905Z,89.20
2019-05-18T02:37:07.267Z,89.20
2019-05-18T02:38:15.450Z,89.10
2019-05-18T02:39:19.812Z,89.10
2019-05-18T02:40:24.332Z,89.20
2019-05-18T02:41:30.162Z,89.10
2019-05-18T02:42:34.699Z,89.10
2019-05-18T02:43:38.956Z,89.20
2019-05-18T02:44:47.103Z,89.20
2019-05-18T02:45:51.433Z,89.20
2019-05-18T02:46:57.252Z,89.20
2019-05-18T02:48:01.567Z,89.20
2019-05-18T02:49:06.160Z,89.20
2019-05-18T02:50:10.847Z,89.20
2019-05-18T02:51:15.386Z,89.20
2019-05-18T02:52:19.638Z,89.20
2019-05-18T02:53:24.128Z,89.20
2019-05-18T02:54:29.538Z,89.20
2019-05-18T02:55:34.127Z,89.30
2019-05-18T02:56:38.435Z,89.30
2019-05-18T02:57:42.876Z,89.30
2019-05-18T02:58:47.234Z,89.30
2019-05-18T02:59:51.766Z,89.40
2019-05-18T03:00:56.031Z,89.40
2019-05-18T03:02:00.588Z,89.40
2019-05-18T03:03:06.609Z,89.50
2019-05-18T03:04:15.149Z,89.60
2019-05-18T03:05:19.507Z,89.60
2019-05-18T03:06:24.071Z,89.60
2019-05-18T03:07:28.441Z,89.70
2019-05-18T03:08:32.968Z,89.90
2019-05-18T03:09:37.456Z,89.90
2019-05-18T03:10:42.145Z,89.90
2019-05-18T03:11:46.612Z,89.90
2019-05-18T03:12:52.421Z,90.00
2019-05-18T03:13:56.707Z,90.00
2019-05-18T03:15:01.221Z,90.00
2019-05-18T03:16:05.679Z,90.00
2019-05-18T03:17:10.713Z,90.10
2019-05-18T03:18:15.174Z,90.10
2019-05-18T03:19:19.755Z,90.10
2019-05-18T03:20:24.052Z,90.20
2019-05-18T03:21:28.547Z,90.20
2019-05-18T03:22:34.346Z,90.20
2019-05-18T03:23:38.854Z,90.30
2019-05-18T03:24:43.200Z,90.30
2019-05-18T03:25:47.662Z,90.40
2019-05-18T03:26:52.074Z,90.40
2019-05-18T03:27:56.619Z,90.40
2019-05-18T03:29:01.057Z,90.40
2019-05-18T03:30:09.367Z,90.50
2019-05-18T03:31:13.729Z,90.50
2019-05-18T03:32:18.180Z,90.50
2019-05-18T03:33:29.108Z,90.50
2019-05-18T03:34:30.167Z,90.60
2019-05-18T03:35:34.934Z,90.60
2019-05-18T03:36:39.548Z,90.60
2019-05-18T03:37:43.814Z,90.60
2019-05-18T03:38:48.276Z,90.60
2019-05-18T03:39:52.711Z,90.60
2019-05-18T03:40:57.246Z,90.50
2019-05-18T03:42:01.632Z,90.50
2019-05-18T03:43:06.120Z,90.50
2019-05-18T03:44:10.557Z,90.50
2019-05-18T03:45:15.276Z,90.50
2019-05-18T03:46:23.569Z,90.60
2019-05-18T03:47:25.907Z,90.60
2019-05-18T03:48:31.761Z,90.70
2019-05-18T03:49:36.264Z,90.70
2019-05-18T03:50:40.528Z,90.70
2019-05-18T03:51:44.989Z,90.70
2019-05-18T03:52:49.353Z,90.80
2019-05-18T03:53:54.830Z,90.70
2019-05-18T03:55:00.876Z,90.80
2019-05-18T03:56:05.334Z,90.80
2019-05-18T03:57:12.278Z,90.70
2019-05-18T03:58:19.900Z,90.70
2019-05-18T03:59:24.185Z,90.70
2019-05-18T04:00:28.724Z,90.70
2019-05-18T04:01:33.064Z,90.70
2019-05-18T04:02:37.512Z,90.70
2019-05-18T04:03:41.891Z,90.80
2019-05-18T04:04:46.431Z,90.80
2019-05-18T04:05:50.771Z,90.80
2019-05-18T04:06:55.264Z,90.80
2019-05-18T04:07:59.661Z,90.80
2019-05-18T04:09:05.731Z,90.80
2019-05-18T04:10:10.613Z,90.90
2019-05-18T04:11:15.045Z,90.90
2019-05-18T04:12:19.689Z,90.90
2019-05-18T04:13:24.245Z,90.90
2019-05-18T04:14:29.792Z,91.00
2019-05-18T04:15:34.209Z,90.90
2019-05-18T04:16:38.532Z,91.00
2019-05-18T04:17:43.013Z,91.00
2019-05-18T04:18:47.342Z,91.00
2019-05-18T04:19:51.838Z,91.00
2019-05-18T04:20:57.325Z,91.00
2019-05-18T04:22:01.961Z,91.00
2019-05-18T04:23:07.363Z,91.00
2019-05-18T04:24:11.941Z,91.00
2019-05-18T04:25:16.237Z,91.10
2019-05-18T04:26:20.746Z,91.10
2019-05-18T04:27:25.019Z,91.10
2019-05-18T04:28:29.476Z,91.20
2019-05-18T04:29:33.812Z,91.60
2019-05-18T04:30:38.319Z,91.20
2019-05-18T04:31:42.704Z,91.30
2019-05-18T04:32:47.245Z,91.30
2019-05-18T04:33:51.517Z,91.40
2019-05-18T04:34:55.995Z,91.50
2019-05-18T04:36:00.297Z,91.50
2019-05-18T04:37:04.806Z,91.60
2019-05-18T04:38:09.102Z,91.60
2019-05-18T04:39:14.876Z,91.60
2019-05-18T04:40:20.375Z,91.60
2019-05-18T04:41:26.290Z,91.70
2019-05-18T04:42:30.627Z,91.80
2019-05-18T04:43:35.179Z,91.80
2019-05-18T04:44:39.450Z,91.80
2019-05-18T04:45:43.925Z,91.80
2019-05-18T04:46:48.220Z,91.80
2019-05-18T04:47:52.715Z,91.80
2019-05-18T04:48:56.985Z,91.80
2019-05-18T04:50:05.572Z,91.80
2019-05-18T04:51:07.659Z,91.80
2019-05-18T04:52:13.226Z,91.70
2019-05-18T04:53:17.514Z,91.70
2019-05-18T04:54:22.085Z,91.70
2019-05-18T04:55:26.434Z,91.70
2019-05-18T04:56:31.602Z,91.70
2019-05-18T04:57:36.339Z,91.70
2019-05-18T04:58:40.786Z,91.70
2019-05-18T04:59:46.857Z,91.70
2019-05-18T05:00:51.362Z,91.70
2019-05-18T05:01:55.720Z,91.70
2019-05-18T05:03:00.234Z,91.60
2019-05-18T05:04:04.643Z,91.70
2019-05-18T05:05:09.338Z,91.70
2019-05-18T05:06:13.574Z,91.70
2019-05-18T05:07:18.057Z,91.80
2019-05-18T05:08:22.315Z,91.70
2019-05-18T05:09:26.777Z,91.80
2019-05-18T05:10:31.043Z,91.90
2019-05-18T05:11:35.491Z,92.00
2019-05-18T05:12:39.778Z,92.10
2019-05-18T05:13:44.338Z,92.20
2019-05-18T05:14:48.574Z,92.30
2019-05-18T05:15:53.101Z,92.30
2019-05-18T05:16:57.462Z,92.40
2019-05-18T05:18:01.887Z,92.30
2019-05-18T05:19:08.714Z,92.40
2019-05-18T05:20:19.816Z,92.40
2019-05-18T05:21:19.404Z,92.50
2019-05-18T05:22:23.985Z,92.60
2019-05-18T05:23:28.298Z,92.60
2019-05-18T05:24:32.801Z,92.60
2019-05-18T05:25:37.189Z,92.70
2019-05-18T05:26:42.382Z,92.70
2019-05-18T05:27:46.652Z,92.70
2019-05-18T05:28:51.132Z,92.70
2019-05-18T05:29:55.410Z,92.70
2019-05-18T05:31:01.655Z,92.70
2019-05-18T05:32:05.945Z,92.70
2019-05-18T05:33:10.401Z,92.70
2019-05-18T05:34:17.959Z,92.80
2019-05-18T05:35:22.454Z,92.70
2019-05-18T05:36:26.709Z,92.80
2019-05-18T05:37:31.197Z,92.80
2019-05-18T05:38:37.536Z,92.80
2019-05-18T05:39:44.058Z,92.80
2019-05-18T05:40:48.991Z,92.80
2019-05-18T05:41:53.465Z,92.80
2019-05-18T05:42:57.749Z,92.80
2019-05-18T05:44:02.238Z,92.90
2019-05-18T05:45:10.044Z,92.80
2019-05-18T05:46:14.522Z,92.90
2019-05-18T05:47:18.875Z,92.90
2019-05-18T05:48:23.409Z,92.90
2019-05-18T05:49:27.771Z,92.90
2019-05-18T05:50:35.808Z,92.80
2019-05-18T05:51:38.267Z,92.80
2019-05-18T05:52:44.499Z,92.90
2019-05-18T05:53:48.695Z,92.80
2019-05-18T05:54:53.134Z,92.90
2019-05-18T05:55:57.490Z,92.90
2019-05-18T05:57:01.945Z,92.90
2019-05-18T05:58:06.325Z,93.00
2019-05-18T05:59:13.542Z,92.90
2019-05-18T06:00:18.347Z,93.00
2019-05-18T06:01:26.070Z,92.90
2019-05-18T06:02:30.399Z,93.00
2019-05-18T06:03:34.867Z,93.00
2019-05-18T06:04:39.140Z,93.10
2019-05-18T06:05:43.573Z,93.40
2019-05-18T06:06:47.881Z,93.00
2019-05-18T06:07:52.370Z,93.10
2019-05-18T06:08:56.632Z,93.10
2019-05-18T06:10:01.074Z,93.10
2019-05-18T06:11:05.484Z,93.00
2019-05-18T06:12:09.933Z,92.90
2019-05-18T06:13:14.324Z,92.90
2019-05-18T06:14:18.685Z,92.90
2019-05-18T06:15:23.001Z,93.00
2019-05-18T06:16:27.483Z,93.00
2019-05-18T06:17:31.758Z,93.00
2019-05-18T06:18:36.209Z,93.10
2019-05-18T06:19:40.574Z,93.10
2019-05-18T06:20:51.542Z,93.10
2019-05-18T06:21:52.193Z,93.10
2019-05-18T06:22:56.836Z,93.10
2019-05-18T06:24:01.085Z,93.00
2019-05-18T06:25:07.883Z,92.90
2019-05-18T06:26:12.348Z,92.90
2019-05-18T06:27:16.921Z,92.90
2019-05-18T06:28:21.297Z,92.90
2019-05-18T06:29:25.743Z,92.90
2019-05-18T06:30:30.006Z,92.90
2019-05-18T06:31:34.515Z,92.90
2019-05-18T06:32:38.883Z,92.80
2019-05-18T06:33:43.314Z,93.10
2019-05-18T06:34:47.673Z,92.70
2019-05-18T06:35:53.825Z,92.70
2019-05-18T06:36:58.101Z,92.70
2019-05-18T06:38:02.806Z,92.70
2019-05-18T06:39:07.829Z,92.70
2019-05-18T06:40:13.261Z,92.70
2019-05-18T06:41:19.152Z,92.70
2019-05-18T06:42:23.682Z,92.80
2019-05-18T06:43:27.972Z,92.80
2019-05-18T06:44:32.489Z,92.80
2019-05-18T06:45:37.266Z,92.80
2019-05-18T06:46:41.719Z,92.80
2019-05-18T06:47:48.334Z,92.80
2019-05-18T06:48:52.077Z,92.80
2019-05-18T06:49:56.489Z,92.90
2019-05-18T06:51:07.298Z,92.90
2019-05-18T06:52:07.000Z,92.80
2019-05-18T06:53:11.516Z,92.80
2019-05-18T06:54:17.423Z,92.80
2019-05-18T06:55:21.950Z,92.80
2019-05-18T06:56:29.352Z,92.70
2019-05-18T06:57:34.704Z,92.70
2019-05-18T06:58:39.519Z,92.70
2019-05-18T06:59:45.602Z,92.70
2019-05-18T07:00:52.883Z,92.70
2019-05-18T07:01:57.628Z,92.70
2019-05-18T07:03:01.993Z,92.70
2019-05-18T07:04:08.008Z,92.70
2019-05-18T07:05:14.630Z,92.70
2019-05-18T07:06:19.065Z,92.60
2019-05-18T07:07:23.384Z,92.50
2019-05-18T07:08:27.937Z,92.50
2019-05-18T07:09:32.323Z,92.40
2019-05-18T07:10:36.786Z,92.40
2019-05-18T07:11:41.115Z,92.30
2019-05-18T07:12:47.178Z,92.20
2019-05-18T07:13:51.574Z,92.20
2019-05-18T07:15:00.113Z,92.00
2019-05-18T07:16:03.670Z,92.00
2019-05-18T07:17:08.139Z,92.00
2019-05-18T07:18:14.437Z,92.00
2019-05-18T07:19:18.899Z,92.00
2019-05-18T07:20:23.189Z,91.90
2019-05-18T07:21:27.645Z,91.90
2019-05-18T07:22:32.005Z,91.80
2019-05-18T07:23:36.510Z,91.80
2019-05-18T07:24:40.761Z,91.80
2019-05-18T07:25:45.214Z,91.80
2019-05-18T07:26:49.595Z,91.70
2019-05-18T07:27:55.226Z,91.60
2019-05-18T07:28:59.739Z,91.50
2019-05-18T07:30:06.435Z,91.40
2019-05-18T07:31:15.090Z,91.30
2019-05-18T07:32:20.554Z,91.30
2019-05-18T07:33:26.008Z,91.30
2019-05-18T07:34:31.830Z,91.30
2019-05-18T07:35:36.195Z,91.40
2019-05-18T07:36:40.722Z,91.40
2019-05-18T07:37:45.082Z,91.50
2019-05-18T07:38:49.717Z,91.50
2019-05-18T07:39:54.085Z,91.70
2019-05-18T07:40:58.545Z,91.70
2019-05-18T07:42:02.841Z,91.70
2019-05-18T07:43:07.317Z,91.80
2019-05-18T07:44:11.678Z,91.90
2019-05-18T07:45:16.463Z,91.90
2019-05-18T07:46:20.874Z,91.90
2019-05-18T07:47:25.501Z,92.00
2019-05-18T07:48:29.912Z,92.10
2019-05-18T07:49:34.294Z,92.10
2019-05-18T07:50:38.755Z,92.20
2019-05-18T07:51:43.213Z,92.20
2019-05-18T07:52:47.479Z,92.30
2019-05-18T07:53:52.044Z,92.30
2019-05-18T07:54:56.370Z,92.40
2019-05-18T07:56:02.420Z,92.40
2019-05-18T07:57:06.812Z,92.50
2019-05-18T07:58:11.811Z,92.50
2019-05-18T07:59:19.890Z,92.50
2019-05-18T08:00:23.706Z,92.60
2019-05-18T08:01:28.032Z,92.50
2019-05-18T08:02:32.574Z,92.60
2019-05-18T08:03:36.877Z,92.60
2019-05-18T08:04:41.337Z,92.60
2019-05-18T08:05:45.673Z,92.60
2019-05-18T08:06:50.268Z,92.80
2019-05-18T08:07:54.563Z,92.80
2019-05-18T08:08:59.122Z,92.80
2019-05-18T08:10:04.053Z,92.80
2019-05-18T08:11:10.061Z,92.90
2019-05-18T08:12:14.401Z,93.00
2019-05-18T08:13:18.951Z,93.00
2019-05-18T08:14:23.304Z,93.00
2019-05-18T08:15:27.897Z,93.10
2019-05-18T08:16:34.871Z,93.10
2019-05-18T08:17:40.685Z,93.20
2019-05-18T08:18:45.012Z,93.20
2019-05-18T08:19:49.610Z,93.20
2019-05-18T08:20:53.862Z,93.20
2019-05-18T08:21:58.534Z,93.30
2019-05-18T08:23:02.836Z,93.30
2019-05-18T08:24:08.676Z,93.30
2019-05-18T08:25:16.301Z,93.30
2019-05-18T08:26:22.521Z,93.30
2019-05-18T08:27:28.346Z,93.20
2019-05-18T08:28:34.435Z,93.20
2019-05-18T08:29:43.661Z,93.20
2019-05-18T08:30:51.560Z,93.20
2019-05-18T08:31:56.964Z,93.20
2019-05-18T08:33:01.864Z,93.20
2019-05-18T08:34:05.972Z,93.60
2019-05-18T08:35:11.150Z,93.30
2019-05-18T08:36:15.296Z,93.20
2019-05-18T08:37:20.045Z,93.30
2019-05-18T08:38:24.196Z,93.30
2019-05-18T08:39:30.415Z,93.30
2019-05-18T08:40:34.562Z,93.20
2019-05-18T08:41:39.266Z,93.20
2019-05-18T08:42:50.311Z,93.30
2019-05-18T08:43:54.465Z,93.30
2019-05-18T08:44:58.641Z,93.20
2019-05-18T08:46:03.439Z,93.10
2019-05-18T08:47:07.586Z,93.10
2019-05-18T08:48:12.254Z,93.00
2019-05-18T08:49:17.505Z,93.00
2019-05-18T08:50:22.277Z,93.00
2019-05-18T08:51:26.650Z,92.90
2019-05-18T08:52:35.222Z,92.80
2019-05-18T08:53:39.568Z,92.80
2019-05-18T08:54:44.408Z,92.70
2019-05-18T08:55:51.864Z,92.70
2019-05-18T08:56:59.196Z,92.60
2019-05-18T08:58:03.653Z,92.40
2019-05-18T08:59:08.504Z,92.30
2019-05-18T09:00:15.726Z,92.30
2019-05-18T09:01:19.730Z,92.20
2019-05-18T09:02:25.666Z,92.00
2019-05-18T09:03:37.274Z,91.80
2019-05-18T09:04:44.710Z,91.70
2019-05-18T09:05:52.095Z,91.40
2019-05-18T09:06:58.553Z,91.10
2019-05-18T09:08:06.057Z,90.80
2019-05-18T09:09:12.079Z,90.60
2019-05-18T09:10:19.265Z,90.30
2019-05-18T09:11:32.976Z,90.30
2019-05-18T09:12:37.800Z,90.10
2019-05-18T09:13:42.014Z,90.00
2019-05-18T09:14:46.920Z,90.00
2019-05-18T09:15:55.943Z,89.90
2019-05-18T09:16:57.449Z,89.70
2019-05-18T09:18:04.751Z,89.50
2019-05-18T09:19:11.826Z,89.20
2019-05-18T09:20:17.269Z,88.70
2019-05-18T09:21:23.954Z,88.10
2019-05-18T09:22:33.049Z,87.70
2019-05-18T09:23:45.407Z,88.10
2019-05-18T09:24:52.318Z,87.10
2019-05-18T09:26:02.348Z,86.60
2019-05-18T09:27:05.499Z,86.30
2019-05-18T09:28:11.861Z,86.00
2019-05-18T09:29:20.661Z,85.80
2019-05-18T09:30:25.642Z,85.60
2019-05-18T09:31:30.104Z,85.40
2019-05-18T09:32:36.346Z,85.60
2019-05-18T09:33:51.090Z,85.50
2019-05-18T09:35:05.530Z,85.50
2019-05-18T09:36:11.410Z,85.50
2019-05-18T09:37:16.989Z,85.20
2019-05-18T09:38:27.280Z,85.20
2019-05-18T09:39:58.187Z,85.20
2019-05-18T09:40:44.553Z,85.20
2019-05-18T09:41:57.156Z,84.90
2019-05-18T09:43:06.978Z,84.50
2019-05-18T09:44:13.863Z,83.70
2019-05-18T09:45:20.141Z,83.10
2019-05-18T09:46:24.575Z,82.60
2019-05-18T09:47:29.234Z,82.60
2019-05-18T09:48:33.652Z,82.60
2019-05-18T09:49:38.207Z,82.50
2019-05-18T09:50:44.913Z,82.60
2019-05-18T09:51:49.467Z,82.80
2019-05-18T09:52:54.058Z,82.50
2019-05-18T09:53:59.048Z,82.40
2019-05-18T09:55:10.354Z,82.40
2019-05-18T09:56:17.550Z,82.20
2019-05-18T09:57:25.880Z,81.60
2019-05-18T09:58:30.540Z,81.60
2019-05-18T09:59:34.964Z,81.60
2019-05-18T10:00:39.659Z,81.60
2019-05-18T10:01:44.219Z,81.50
2019-05-18T10:02:52.212Z,81.60
2019-05-18T10:03:56.988Z,81.50
2019-05-18T10:05:13.754Z,81.40
2019-05-18T10:06:18.271Z,81.40
2019-05-18T10:07:23.396Z,81.10
2019-05-18T10:08:31.964Z,81.00
2019-05-18T10:09:39.538Z,81.20
2019-05-18T10:10:44.099Z,81.20
2019-05-18T10:11:51.938Z,81.30
2019-05-18T10:13:00.062Z,81.60
2019-05-18T10:14:05.470Z,81.80
2019-05-18T10:15:11.605Z,81.90
2019-05-18T10:16:19.011Z,82.20
2019-05-18T10:17:26.092Z,82.10
2019-05-18T10:18:32.240Z,81.80
2019-05-18T10:19:36.722Z,81.70
2019-05-18T10:20:43.236Z,81.50
2019-05-18T10:21:47.296Z,81.40
2019-05-18T10:23:04.122Z,81.20
2019-05-18T10:24:02.044Z,81.00
2019-05-18T10:25:07.432Z,81.00
2019-05-18T10:26:13.252Z,81.00
2019-05-18T10:27:17.899Z,80.90
2019-05-18T10:28:23.623Z,80.40
2019-05-18T10:29:28.101Z,80.20
2019-05-18T10:30:32.464Z,79.90
2019-05-18T10:31:36.940Z,79.70
2019-05-18T10:32:42.906Z,79.90
2019-05-18T10:33:47.297Z,79.90
2019-05-18T10:34:51.565Z,80.00
2019-05-18T10:35:56.258Z,79.90
2019-05-18T10:37:00.620Z,79.60
2019-05-18T10:38:11.495Z,79.50
2019-05-18T10:39:15.157Z,79.30
2019-05-18T10:40:19.911Z,78.90
2019-05-18T10:41:24.268Z,78.60
2019-05-18T10:42:28.691Z,78.30
2019-05-18T10:43:33.180Z,78.30
2019-05-18T10:44:40.689Z,78.20
2019-05-18T10:45:45.431Z,78.40
2019-05-18T10:46:50.044Z,78.50
2019-05-18T10:47:54.343Z,78.10
2019-05-18T10:48:58.822Z,77.40
2019-05-18T10:50:03.203Z,77.20
2019-05-18T10:51:07.932Z,77.10
2019-05-18T10:52:13.800Z,76.90
2019-05-18T10:53:28.337Z,76.90
2019-05-18T10:54:24.276Z,76.80
2019-05-18T10:55:28.936Z,76.90
2019-05-18T10:56:33.338Z,76.60
2019-05-18T10:57:37.933Z,76.60
2019-05-18T10:58:42.439Z,76.40
2019-05-18T10:59:48.604Z,76.30
2019-05-18T11:00:54.497Z,76.10
2019-05-18T11:02:01.531Z,76.00
2019-05-18T11:03:07.650Z,76.10
2019-05-18T11:04:12.135Z,76.00
2019-05-18T11:05:16.750Z,76.10
2019-05-18T11:06:21.384Z,75.60
2019-05-18T11:07:28.877Z,75.50
2019-05-18T11:08:31.853Z,75.60
2019-05-18T11:09:36.354Z,75.30
2019-05-18T11:10:40.880Z,75.20
2019-05-18T11:11:45.152Z,75.00
2019-05-18T11:12:49.703Z,74.10
2019-05-18T11:13:56.124Z,73.90
2019-05-18T11:15:00.713Z,73.40
2019-05-18T11:16:05.165Z,73.20
2019-05-18T11:17:09.921Z,72.90
2019-05-18T11:18:14.417Z,72.70
2019-05-18T11:19:18.921Z,72.80
2019-05-18T11:20:23.347Z,72.80
2019-05-18T11:21:30.970Z,72.80
2019-05-18T11:22:35.343Z,72.80
2019-05-18T11:23:43.665Z,72.90
2019-05-18T11:24:47.146Z,72.70
2019-05-18T11:25:51.689Z,72.70
2019-05-18T11:26:56.015Z,72.90
2019-05-18T11:28:03.504Z,72.90
2019-05-18T11:29:07.438Z,72.40
2019-05-18T11:30:13.926Z,72.00
2019-05-18T11:31:18.292Z,71.70
2019-05-18T11:32:22.843Z,71.60
2019-05-18T11:33:27.148Z,71.40
2019-05-18T11:34:31.750Z,71.40
2019-05-18T11:35:36.139Z,71.40
2019-05-18T11:36:40.721Z,71.50
2019-05-18T11:37:47.223Z,72.30
2019-05-18T11:38:55.233Z,71.50
2019-05-18T11:39:59.816Z,71.70
2019-05-18T11:41:04.842Z,71.80
2019-05-18T11:42:10.666Z,72.00
2019-05-18T11:43:15.150Z,72.10
2019-05-18T11:44:19.577Z,72.00
2019-05-18T11:45:25.078Z,71.80
2019-05-18T11:46:32.168Z,72.00
2019-05-18T11:47:36.844Z,72.00
2019-05-18T11:48:41.407Z,72.10
2019-05-18T11:49:45.994Z,72.20
2019-05-18T11:50:50.486Z,72.20
2019-05-18T11:51:55.277Z,72.10
2019-05-18T11:52:59.672Z,71.70
2019-05-18T11:54:05.521Z,71.10
2019-05-18T11:55:13.519Z,71.00
2019-05-18T11:56:21.992Z,71.10
2019-05-18T11:57:28.400Z,71.10
2019-05-18T11:58:33.022Z,71.10
2019-05-18T11:59:37.356Z,70.80
2019-05-18T12:00:41.826Z,70.60
2019-05-18T12:01:46.282Z,70.30
2019-05-18T12:02:51.642Z,70.30
2019-05-18T12:03:56.196Z,70.20
2019-05-18T12:05:00.795Z,70.20
2019-05-18T12:06:05.253Z,70.10
2019-05-18T12:07:13.643Z,70.30
2019-05-18T12:08:19.619Z,70.50
2019-05-18T12:09:24.312Z,70.80
2019-05-18T12:10:28.732Z,70.70
2019-05-18T12:11:33.315Z,70.40
2019-05-18T12:12:37.805Z,70.40
2019-05-18T12:13:42.467Z,70.40
2019-05-18T12:14:49.527Z,70.20
2019-05-18T12:15:54.243Z,69.80
2019-05-18T12:16:58.474Z,69.30
2019-05-18T12:18:03.041Z,68.70
2019-05-18T12:19:07.396Z,68.40
2019-05-18T12:20:13.697Z,68.20
2019-05-18T12:21:18.010Z,68.10
2019-05-18T12:22:25.620Z,67.90
2019-05-18T12:23:32.798Z,67.10
2019-05-18T12:24:37.373Z,66.90
2019-05-18T12:25:41.772Z,66.90
2019-05-18T12:26:46.411Z,66.80
2019-05-18T12:27:50.881Z,66.70
2019-05-18T12:28:55.487Z,66.90
2019-05-18T12:30:00.836Z,66.80
2019-05-18T12:31:05.334Z,67.10
2019-05-18T12:32:09.665Z,67.50
2019-05-18T12:33:14.221Z,67.70
2019-05-18T12:34:18.874Z,67.80
2019-05-18T12:35:23.489Z,67.90
2019-05-18T12:36:27.828Z,67.70
2019-05-18T12:37:32.285Z,67.10
2019-05-18T12:38:36.561Z,66.60
2019-05-18T12:39:46.272Z,66.00
2019-05-18T12:40:50.648Z,65.80
2019-05-18T12:41:55.157Z,65.90
2019-05-18T12:42:59.666Z,65.80
2019-05-18T12:44:04.536Z,65.90
2019-05-18T12:45:09.219Z,65.70
2019-05-18T12:46:16.848Z,64.90
2019-05-18T12:47:21.107Z,64.50
2019-05-18T12:48:25.616Z,64.40
2019-05-18T12:49:29.884Z,63.80
2019-05-18T12:50:34.576Z,63.60
2019-05-18T12:51:42.678Z,63.80
2019-05-18T12:52:47.537Z,63.80
2019-05-18T12:53:51.868Z,63.50
2019-05-18T12:54:56.463Z,63.30
2019-05-18T12:56:00.801Z,63.00
2019-05-18T12:57:05.344Z,63.10
2019-05-18T12:58:09.689Z,63.30
2019-05-18T12:59:14.200Z,63.60
2019-05-18T13:00:19.770Z,63.80
2019-05-18T13:01:24.380Z,64.10
2019-05-18T13:02:33.014Z,64.50
2019-05-18T13:03:37.528Z,65.00
2019-05-18T13:04:42.163Z,65.20
2019-05-18T13:05:46.823Z,65.20
2019-05-18T13:06:51.166Z,65.30
2019-05-18T13:07:57.660Z,65.50
2019-05-18T13:09:01.818Z,65.50
2019-05-18T13:10:11.383Z,65.60
2019-05-18T13:11:15.766Z,65.70
2019-05-18T13:12:20.264Z,66.70
2019-05-18T13:13:24.673Z,65.40
2019-05-18T13:14:29.111Z,65.10
2019-05-18T13:15:35.874Z,64.70
2019-05-18T13:16:39.631Z,64.60
2019-05-18T13:17:44.029Z,64.70
2019-05-18T13:18:48.539Z,64.20
2019-05-18T13:19:52.928Z,64.30
2019-05-18T13:20:57.884Z,64.50
2019-05-18T13:22:02.299Z,64.60
2019-05-18T13:23:09.971Z,64.80
2019-05-18T13:24:14.346Z,65.00
2019-05-18T13:25:19.327Z,65.10
2019-05-18T13:26:23.671Z,64.90
2019-05-18T13:27:38.839Z,64.80
2019-05-18T13:28:34.109Z,64.90
2019-05-18T13:29:38.735Z,64.90
2019-05-18T13:30:45.675Z,64.70
2019-05-18T13:31:49.537Z,64.70
2019-05-18T13:32:54.017Z,64.70
2019-05-18T13:33:58.731Z,64.80
2019-05-18T13:35:05.212Z,64.40
2019-05-18T13:36:09.912Z,64.70
2019-05-18T13:37:14.454Z,64.90
2019-05-18T13:38:21.883Z,65.00
2019-05-18T13:39:26.253Z,65.10
2019-05-18T13:40:32.028Z,65.20
2019-05-18T13:41:36.475Z,65.20
2019-05-18T13:42:41.064Z,65.20
2019-05-18T13:43:45.707Z,65.20
2019-05-18T13:44:51.659Z,64.80
2019-05-18T13:45:56.076Z,64.50
2019-05-18T13:47:00.709Z,64.30
2019-05-18T13:48:05.223Z,64.00
2019-05-18T13:49:12.970Z,63.80
2019-05-18T13:50:18.911Z,63.70
2019-05-18T13:51:24.961Z,63.30
2019-05-18T13:52:29.212Z,63.20
2019-05-18T13:53:33.728Z,63.20
2019-05-18T13:54:38.017Z,63.10
2019-05-18T13:55:42.713Z,63.40
2019-05-18T13:56:48.282Z,64.10
2019-05-18T13:57:52.672Z,63.30
2019-05-18T13:58:56.985Z,63.50